createdAt,value
2019-01-15T00:00:38.755Z,19.53
2019-01-15T00:03:07.803Z,17.77
2019-01-15T00:05:36.827Z,17.20
2019-01-15T00:08:05.937Z,17.00
2019-01-15T00:10:34.968Z,17.90
2019-01-15T00:13:03.977Z,17.90
2019-01-15T00:15:33.035Z,18.63
2019-01-15T00:18:02.055Z,18.40
2019-01-15T00:20:31.126Z,18.40
2019-01-15T00:23:00.130Z,18.20
2019-01-15T00:25:29.159Z,19.47
2019-01-15T00:27:58.213Z,19.53
2019-01-15T00:30:27.480Z,18.53
2019-01-15T00:32:56.507Z,17.53
2019-01-15T00:35:25.525Z,23.43
2019-01-15T00:37:54.577Z,17.27
2019-01-15T00:40:23.649Z,17.77
2019-01-15T00:42:52.702Z,19.70
2019-01-15T00:45:21.755Z,18.10
2019-01-15T00:47:50.843Z,19.93
2019-01-15T00:50:19.859Z,17.57
2019-01-15T00:52:48.916Z,17.67
2019-01-15T00:55:17.940Z,22.77
2019-01-15T00:57:46.962Z,17.67
2019-01-15T01:00:18.680Z,18.03
2019-01-15T01:02:47.802Z,19.97
2019-01-15T01:05:17.174Z,19.20
2019-01-15T01:07:46.303Z,18.77
2019-01-15T01:10:15.933Z,18.13
2019-01-15T01:12:44.998Z,19.07
2019-01-15T01:15:15.268Z,18.23
2019-01-15T01:17:44.633Z,18.60
2019-01-15T01:20:18.870Z,17.97
2019-01-15T01:22:47.926Z,19.20
2019-01-15T01:25:16.945Z,18.67
2019-01-15T01:27:45.998Z,18.73
2019-01-15T01:30:17.598Z,22.37
2019-01-15T01:32:46.620Z,27.30
2019-01-15T01:35:15.654Z,19.00
2019-01-15T01:37:44.710Z,18.60
2019-01-15T01:40:18.498Z,19.90
2019-01-15T01:42:47.665Z,19.53
2019-01-15T01:45:17.207Z,24.03
2019-01-15T01:47:46.380Z,22.07
2019-01-15T01:50:15.694Z,19.00
2019-01-15T01:52:44.938Z,20.17
2019-01-15T01:55:15.338Z,23.50
2019-01-15T01:57:44.539Z,18.97
2019-01-15T02:00:21.230Z,20.13
2019-01-15T02:02:50.621Z,19.23
2019-01-15T02:05:19.683Z,19.70
2019-01-15T02:07:48.782Z,19.63
2019-01-15T02:10:19.445Z,19.60
2019-01-15T02:12:48.977Z,19.90
2019-01-15T02:15:20.285Z,26.90
2019-01-15T02:17:49.433Z,19.83
2019-01-15T02:20:19.274Z,19.40
2019-01-15T02:22:48.621Z,20.67
2019-01-15T02:25:17.698Z,19.53
2019-01-15T02:27:48.851Z,18.90
2019-01-15T02:30:20.110Z,20.50
2019-01-15T02:32:49.157Z,21.43
2019-01-15T02:35:18.201Z,18.57
2019-01-15T02:37:47.272Z,20.53
2019-01-15T02:40:16.551Z,18.77
2019-01-15T02:42:46.977Z,20.50
2019-01-15T02:45:18.128Z,20.57
2019-01-15T02:47:47.866Z,22.63
2019-01-15T02:50:18.113Z,20.93
2019-01-15T02:52:47.231Z,19.43
2019-01-15T02:55:16.289Z,20.10
2019-01-15T02:57:45.348Z,27.27
2019-01-15T03:00:33.912Z,22.27
2019-01-15T03:03:02.988Z,20.17
2019-01-15T03:05:31.997Z,20.83
2019-01-15T03:08:01.045Z,20.07
2019-01-15T03:10:30.065Z,20.00
2019-01-15T03:12:59.120Z,32.97
2019-01-15T03:15:28.150Z,22.43
2019-01-15T03:17:57.211Z,20.80
2019-01-15T03:20:26.218Z,20.90
2019-01-15T03:22:55.273Z,30.27
2019-01-15T03:25:24.315Z,21.93
2019-01-15T03:27:53.364Z,19.97
2019-01-15T03:30:23.984Z,21.23
2019-01-15T03:32:53.167Z,39.73
2019-01-15T03:35:22.218Z,20.60
2019-01-15T03:37:51.272Z,21.30
2019-01-15T03:40:27.206Z,19.87
2019-01-15T03:43:03.576Z,21.70
2019-01-15T03:45:27.021Z,26.20
2019-01-15T03:47:56.034Z,20.80
2019-01-15T03:50:25.082Z,21.30
2019-01-15T03:52:54.134Z,24.97
2019-01-15T03:55:23.504Z,23.03
2019-01-15T03:57:52.510Z,19.93
2019-01-15T04:00:27.633Z,25.60
2019-01-15T04:02:57.436Z,27.53
2019-01-15T04:05:26.466Z,40.33
2019-01-15T04:07:59.500Z,20.60
2019-01-15T04:10:29.344Z,21.20
2019-01-15T04:12:58.408Z,22.70
2019-01-15T04:15:27.415Z,23.47
2019-01-15T04:17:56.484Z,25.63
2019-01-15T04:20:25.500Z,20.33
2019-01-15T04:22:54.616Z,20.37
2019-01-15T04:25:23.775Z,20.30
2019-01-15T04:27:52.838Z,28.80
2019-01-15T04:30:23.402Z,27.73
2019-01-15T04:32:52.419Z,23.73
2019-01-15T04:35:21.594Z,22.40
2019-01-15T04:37:50.612Z,19.97
2019-01-15T04:46:23.818Z,19.33
2019-01-15T04:48:52.895Z,19.43
2019-01-15T04:51:21.907Z,21.67
2019-01-15T04:53:50.881Z,17.90
2019-01-15T04:56:19.900Z,22.80
2019-01-15T04:58:48.960Z,25.73
2019-01-15T05:01:17.967Z,19.57
2019-01-15T05:03:47.032Z,17.50
2019-01-15T05:06:16.105Z,17.90
2019-01-15T05:08:45.097Z,20.07
2019-01-15T05:11:14.118Z,19.33
2019-01-15T05:13:43.181Z,21.93
2019-01-15T05:16:12.186Z,19.87
2019-01-15T05:18:41.225Z,17.80
2019-01-15T05:21:10.279Z,19.30
2019-01-15T05:23:39.346Z,18.50
2019-01-15T05:26:08.354Z,26.07
2019-01-15T05:28:37.407Z,20.57
2019-01-15T05:31:06.413Z,20.47
2019-01-15T05:33:35.467Z,19.10
2019-01-15T05:36:05.332Z,21.80
2019-01-15T05:38:34.377Z,31.33
2019-01-15T05:41:03.390Z,21.63
2019-01-15T05:43:35.806Z,24.57
2019-01-15T05:46:03.200Z,18.03
2019-01-15T05:48:35.214Z,25.77
2019-01-15T05:51:19.130Z,24.47
2019-01-15T05:53:48.179Z,19.00
2019-01-15T05:56:17.239Z,20.70
2019-01-15T05:58:46.283Z,27.83
2019-01-15T06:01:15.295Z,22.73
2019-01-15T06:03:44.348Z,19.50
2019-01-15T06:06:13.361Z,30.53
2019-01-15T06:08:42.405Z,21.83
2019-01-15T06:11:11.490Z,23.90
2019-01-15T06:13:42.750Z,25.50
2019-01-15T06:16:11.809Z,20.90
2019-01-15T06:18:40.814Z,21.33
2019-01-15T06:21:09.825Z,30.77
2019-01-15T06:23:38.890Z,22.47
2019-01-15T06:26:07.895Z,22.20
2019-01-15T06:28:37.386Z,26.37
2019-01-15T06:31:06.809Z,20.43
2019-01-15T06:33:35.891Z,25.33
2019-01-15T06:36:04.935Z,25.23
2019-01-15T06:38:33.974Z,27.70
2019-01-15T06:41:03.022Z,30.00
2019-01-15T06:43:32.069Z,24.60
2019-01-15T06:46:01.078Z,27.80
2019-01-15T06:48:30.139Z,35.33
2019-01-15T06:50:59.158Z,25.80
2019-01-15T06:53:28.198Z,30.63
2019-01-15T06:55:57.577Z,22.80
2019-01-15T06:58:26.633Z,21.53
2019-01-15T07:00:55.640Z,28.67
2019-01-15T07:03:24.687Z,39.87
2019-01-15T07:05:53.741Z,28.50
2019-01-15T07:08:22.752Z,35.83
2019-01-15T07:10:51.818Z,32.80
2019-01-15T07:13:20.844Z,30.93
2019-01-15T07:15:51.863Z,31.97
2019-01-15T07:18:20.914Z,37.37
2019-01-15T07:20:50.038Z,31.13
2019-01-15T07:23:19.006Z,37.87
2019-01-15T07:25:48.053Z,23.97
2019-01-15T07:28:17.769Z,29.47
2019-01-15T07:30:52.789Z,50.63
2019-01-15T07:33:24.717Z,33.80
2019-01-15T07:35:53.870Z,27.73
2019-01-15T07:38:22.841Z,32.67
2019-01-15T07:40:51.904Z,24.13
2019-01-15T07:43:20.923Z,36.87
2019-01-15T07:45:50.197Z,27.23
2019-01-15T07:48:19.212Z,25.03
2019-01-15T07:50:48.230Z,31.00
2019-01-15T07:53:17.292Z,27.97
2019-01-15T07:55:46.307Z,22.03
2019-01-15T07:58:15.359Z,23.70
2019-01-15T08:00:44.446Z,24.37
2019-01-15T08:03:13.452Z,26.17
2019-01-15T08:05:42.463Z,25.30
2019-01-15T08:08:11.657Z,30.07
2019-01-15T08:10:41.696Z,35.57
2019-01-15T08:13:11.074Z,33.43
2019-01-15T08:15:40.137Z,32.50
2019-01-15T08:18:09.172Z,30.30
2019-01-15T08:20:38.188Z,21.50
2019-01-15T08:23:07.234Z,31.73
2019-01-15T08:25:36.299Z,27.77
2019-01-15T08:28:05.469Z,28.17
2019-01-15T08:30:36.477Z,20.13
2019-01-15T08:33:05.921Z,24.37
2019-01-15T08:35:35.055Z,20.40
2019-01-15T08:38:04.442Z,28.60
2019-01-15T08:40:33.457Z,28.20
2019-01-15T08:43:02.519Z,29.87
2019-01-15T08:45:31.521Z,30.97
2019-01-15T08:48:08.497Z,19.97
2019-01-15T08:50:37.504Z,21.73
2019-01-15T08:53:06.553Z,25.83
2019-01-15T08:55:35.570Z,39.87
2019-01-15T08:58:04.627Z,23.17
2019-01-15T09:00:33.632Z,27.90
2019-01-15T09:03:02.968Z,28.60
2019-01-15T09:05:31.986Z,24.43
2019-01-15T09:08:01.001Z,24.43
2019-01-15T09:10:30.070Z,28.63
2019-01-15T09:12:59.132Z,28.80
2019-01-15T09:15:28.147Z,36.83
2019-01-15T09:17:57.206Z,28.40
2019-01-15T09:20:26.212Z,23.20
2019-01-15T09:22:55.265Z,27.20
2019-01-15T09:25:24.480Z,24.63
2019-01-15T09:27:53.488Z,26.13
2019-01-15T09:30:23.150Z,28.53
2019-01-15T09:32:52.339Z,22.47
2019-01-15T09:35:21.431Z,30.93
2019-01-15T09:37:51.606Z,30.60
2019-01-15T09:40:22.584Z,34.53
2019-01-15T09:42:51.795Z,28.63
2019-01-15T09:45:22.654Z,25.03
2019-01-15T09:48:05.123Z,31.40
2019-01-15T09:50:34.128Z,23.53
2019-01-15T09:53:04.214Z,29.70
2019-01-15T09:55:33.449Z,23.40
2019-01-15T09:58:02.566Z,23.03
2019-01-15T10:00:31.615Z,25.47
2019-01-15T10:03:00.629Z,24.23
2019-01-15T10:05:29.703Z,31.37
2019-01-15T10:07:58.706Z,24.87
2019-01-15T10:10:27.727Z,22.27
2019-01-15T10:12:56.789Z,24.10
2019-01-15T10:15:25.811Z,24.20
2019-01-15T10:17:54.835Z,21.60
2019-01-15T10:20:23.890Z,35.90
2019-01-15T10:22:53.141Z,18.93
2019-01-15T10:25:25.103Z,22.70
2019-01-15T10:27:54.867Z,21.40
2019-01-15T10:30:39.811Z,17.37
2019-01-15T10:33:19.491Z,17.37
2019-01-15T10:35:57.611Z,19.83
2019-01-15T10:38:28.351Z,19.20
2019-01-15T10:40:58.246Z,19.47
2019-01-15T10:43:29.020Z,22.10
2019-01-15T10:45:58.062Z,18.03
2019-01-15T10:48:27.194Z,24.17
2019-01-15T10:50:56.203Z,22.23
2019-01-15T10:53:26.389Z,19.97
2019-01-15T10:55:55.439Z,21.07
2019-01-15T10:58:24.457Z,20.10
2019-01-15T11:00:53.614Z,21.93
2019-01-15T11:03:22.669Z,20.50
2019-01-15T11:05:51.765Z,22.73
2019-01-15T11:08:20.786Z,30.73
2019-01-15T11:10:49.799Z,25.37
2019-01-15T11:13:18.850Z,22.37
2019-01-15T11:15:47.913Z,21.87
2019-01-15T11:18:16.930Z,20.30
2019-01-15T11:20:45.949Z,21.47
2019-01-15T11:23:15.307Z,27.57
2019-01-15T11:25:44.469Z,19.83
2019-01-15T11:28:13.525Z,19.00
2019-01-15T11:30:42.543Z,22.70
2019-01-15T11:33:11.561Z,21.23
2019-01-15T11:35:40.615Z,18.53
2019-01-15T11:38:09.678Z,21.37
2019-01-15T11:40:38.744Z,20.87
2019-01-15T11:43:07.755Z,17.93
2019-01-15T11:45:36.765Z,19.03
2019-01-15T11:48:06.768Z,18.53
2019-01-15T11:50:35.749Z,19.30
2019-01-15T11:53:04.874Z,20.20
2019-01-15T11:55:33.907Z,20.37
2019-01-15T11:58:02.949Z,19.43
2019-01-15T12:00:57.237Z,20.57
2019-01-15T12:03:43.390Z,21.50
2019-01-15T12:06:34.478Z,23.43
2019-01-15T12:09:30.152Z,22.10
2019-01-15T12:12:24.067Z,21.87
2019-01-15T12:15:12.063Z,26.30
2019-01-15T12:18:18.328Z,22.87
2019-01-15T12:21:00.940Z,22.43
2019-01-15T12:23:47.791Z,22.00
2019-01-15T12:26:35.781Z,21.43
2019-01-15T12:29:26.433Z,21.87
2019-01-15T12:32:23.501Z,30.83
2019-01-15T12:35:17.469Z,22.87
2019-01-15T12:38:08.568Z,21.50
2019-01-15T12:40:55.220Z,27.00
2019-01-15T12:43:52.612Z,26.93
2019-01-15T12:46:45.898Z,28.93
2019-01-15T12:49:33.391Z,33.43
2019-01-15T12:52:21.498Z,23.20
2019-01-15T12:55:08.361Z,37.87
2019-01-15T12:57:56.392Z,30.57
2019-01-15T13:00:54.255Z,34.13
2019-01-15T13:03:41.000Z,33.30
2019-01-15T13:06:20.605Z,22.27
2019-01-15T13:09:11.445Z,25.47
2019-01-15T13:12:06.126Z,23.07
2019-01-15T13:15:01.970Z,22.73
2019-01-15T13:17:40.138Z,26.87
2019-01-15T13:20:36.462Z,22.33
2019-01-15T13:23:30.420Z,25.60
2019-01-15T13:26:17.425Z,22.93
2019-01-15T13:29:14.767Z,20.50
2019-01-15T13:32:01.529Z,33.90
2019-01-15T13:34:48.644Z,22.33
2019-01-15T13:37:28.697Z,22.83
2019-01-15T13:40:11.571Z,23.77
2019-01-15T13:42:58.743Z,21.60
2019-01-15T13:45:52.968Z,23.07
2019-01-15T13:48:37.893Z,22.73
2019-01-15T13:51:29.128Z,22.77
2019-01-15T13:54:14.994Z,23.67
2019-01-15T13:56:51.506Z,22.53
2019-01-15T13:59:33.867Z,22.97
2019-01-15T14:02:18.182Z,23.47
2019-01-15T14:05:21.645Z,21.47
2019-01-15T14:08:18.599Z,21.77
2019-01-15T14:11:01.392Z,23.83
2019-01-15T14:13:48.959Z,25.63
2019-01-15T14:16:45.962Z,21.60
2019-01-15T14:19:40.244Z,22.27
2019-01-15T14:22:31.141Z,22.87
2019-01-15T14:25:34.968Z,23.67
2019-01-15T14:28:17.933Z,25.20
2019-01-15T14:31:10.550Z,27.90
2019-01-15T14:34:05.494Z,28.80
2019-01-15T14:36:59.581Z,25.90
2019-01-15T14:39:46.266Z,29.07
2019-01-15T14:42:37.315Z,25.13
2019-01-15T14:45:42.948Z,27.70
2019-01-15T14:48:29.931Z,27.97
2019-01-15T14:51:08.167Z,28.20
2019-01-15T14:53:55.027Z,27.53
2019-01-15T14:56:52.196Z,30.80
2019-01-15T14:59:39.045Z,29.97
2019-01-15T15:02:32.505Z,45.50
2019-01-15T15:05:20.837Z,35.57
2019-01-15T15:08:07.642Z,37.20
2019-01-15T15:11:01.707Z,37.53
2019-01-15T15:13:40.865Z,43.53
2019-01-15T15:16:35.005Z,51.63
2019-01-15T15:19:18.848Z,31.80
2019-01-15T15:22:05.877Z,37.27
2019-01-15T15:24:52.740Z,43.80
2019-01-15T15:27:50.800Z,35.07
2019-01-15T15:30:39.097Z,45.97
2019-01-15T15:33:30.430Z,37.63
2019-01-15T15:36:24.400Z,42.17
2019-01-15T15:39:18.475Z,39.00
2019-01-15T15:41:55.965Z,37.40
2019-01-15T15:44:42.905Z,37.57
2019-01-15T15:47:30.894Z,39.13
2019-01-15T15:50:17.290Z,32.77
2019-01-15T15:52:59.020Z,42.87
2019-01-15T15:55:42.057Z,47.40
2019-01-15T15:58:25.165Z,52.47
2019-01-15T16:01:16.042Z,40.40
2019-01-15T16:04:13.308Z,47.00
2019-01-15T16:06:55.326Z,40.83
2019-01-15T16:09:45.012Z,49.40
2019-01-15T16:12:25.303Z,42.13
2019-01-15T16:15:05.181Z,39.20
2019-01-15T16:17:51.856Z,32.73
2019-01-15T16:20:43.035Z,39.57
2019-01-15T16:23:30.115Z,38.93
2019-01-15T16:26:27.490Z,47.83
2019-01-15T16:29:14.400Z,36.93
2019-01-15T16:32:17.854Z,36.03
2019-01-15T16:35:04.289Z,37.67
2019-01-15T16:37:48.619Z,40.20
2019-01-15T16:40:35.640Z,58.37
2019-01-15T16:43:22.542Z,33.73
2019-01-15T16:46:09.445Z,33.03
2019-01-15T16:48:55.755Z,44.23
2019-01-15T16:51:44.164Z,45.10
2019-01-15T16:54:23.727Z,48.43
2019-01-15T16:57:11.994Z,54.93
2019-01-15T17:00:12.027Z,36.70
2019-01-15T17:02:52.474Z,45.10
2019-01-15T17:05:33.142Z,45.07
2019-01-15T17:08:22.268Z,49.07
2019-01-15T17:10:58.117Z,40.73
2019-01-15T17:13:46.155Z,37.23
2019-01-15T17:16:40.345Z,47.30
2019-01-15T17:19:28.386Z,39.53
2019-01-15T17:22:08.063Z,42.67
2019-01-15T17:24:52.728Z,30.50
2019-01-15T17:27:35.916Z,43.83
2019-01-15T17:30:31.833Z,53.27
2019-01-15T17:33:13.990Z,29.73
2019-01-15T17:36:04.978Z,49.47
2019-01-15T17:39:08.385Z,34.27
2019-01-15T17:41:47.929Z,34.80
2019-01-15T17:44:44.844Z,40.47
2019-01-15T17:47:24.417Z,35.37
2019-01-15T17:50:11.443Z,37.43
2019-01-15T17:52:59.490Z,31.00
2019-01-15T17:55:54.173Z,30.57
2019-01-15T17:58:29.881Z,50.47
2019-01-15T18:01:20.941Z,36.10
2019-01-15T18:04:21.790Z,39.43
2019-01-15T18:07:07.341Z,42.90
2019-01-15T18:10:07.506Z,34.13
2019-01-15T18:13:01.409Z,30.10
2019-01-15T18:15:55.585Z,33.23
2019-01-15T18:18:42.639Z,44.30
2019-01-15T18:21:24.335Z,38.83
2019-01-15T18:24:11.240Z,40.70
2019-01-15T18:27:11.505Z,38.57
2019-01-15T18:29:57.371Z,36.37
2019-01-15T18:32:44.339Z,39.87
2019-01-15T18:35:34.807Z,39.30
2019-01-15T18:38:22.996Z,33.57
2019-01-15T18:41:09.684Z,39.33
2019-01-15T18:44:00.532Z,36.20
2019-01-15T18:46:55.794Z,39.20
2019-01-15T18:49:29.409Z,36.53
2019-01-15T18:52:14.218Z,36.03
2019-01-15T18:55:02.215Z,38.57
2019-01-15T18:57:43.230Z,43.10
2019-01-15T19:00:49.050Z,39.80
2019-01-15T19:03:39.178Z,42.03
2019-01-15T19:06:26.062Z,29.80
2019-01-15T19:09:29.509Z,28.83
2019-01-15T19:12:25.720Z,28.37
2019-01-15T19:15:21.293Z,28.47
2019-01-15T19:18:09.894Z,27.13
2019-01-15T19:21:03.933Z,34.80
2019-01-15T19:23:55.455Z,29.17
2019-01-15T19:26:49.604Z,27.97
2019-01-15T19:29:33.520Z,28.67
2019-01-15T19:32:22.550Z,35.13
2019-01-15T19:35:09.693Z,38.10
2019-01-15T19:37:56.878Z,39.77
2019-01-15T19:40:47.934Z,26.53
2019-01-15T19:43:34.419Z,26.30
2019-01-15T19:46:40.795Z,28.37
2019-01-15T19:49:27.529Z,29.50
2019-01-15T19:52:23.430Z,30.93
2019-01-15T19:55:15.322Z,27.87
2019-01-15T19:58:09.426Z,27.60
2019-01-15T20:00:48.744Z,27.60
2019-01-15T20:03:31.624Z,25.33
2019-01-15T20:06:18.449Z,24.30
2019-01-15T20:09:01.950Z,24.67
2019-01-15T20:12:05.295Z,24.67
2019-01-15T20:14:59.401Z,23.60
2019-01-15T20:17:46.378Z,25.40
2019-01-15T20:20:33.292Z,23.97
2019-01-15T20:23:11.978Z,25.10
2019-01-15T20:26:00.638Z,23.37
2019-01-15T20:29:07.274Z,24.70
2019-01-15T20:31:58.134Z,23.50
2019-01-15T20:34:55.183Z,25.03
2019-01-15T20:37:37.266Z,29.10
2019-01-15T20:40:28.270Z,23.13
2019-01-15T20:43:19.358Z,25.30
2019-01-15T20:46:07.396Z,28.40
2019-01-15T20:49:13.869Z,28.33
2019-01-15T20:52:07.049Z,40.13
2019-01-15T20:54:47.270Z,31.97
2019-01-15T20:57:53.565Z,39.00
2019-01-15T21:00:40.335Z,38.07
2019-01-15T21:03:27.132Z,33.87
2019-01-15T21:06:10.019Z,39.47
2019-01-15T21:08:56.722Z,43.37
2019-01-15T21:11:51.005Z,38.73
2019-01-15T21:14:36.391Z,43.47
2019-01-15T21:17:20.289Z,39.00
2019-01-15T21:20:23.329Z,38.93
2019-01-15T21:23:07.116Z,45.33
2019-01-15T21:25:53.830Z,43.33
2019-01-15T21:28:31.985Z,32.20
2019-01-15T21:31:29.271Z,34.37
2019-01-15T21:34:22.458Z,37.27
2019-01-15T21:37:09.147Z,45.87
2019-01-15T21:40:15.667Z,37.50
2019-01-15T21:42:54.766Z,34.53
2019-01-15T21:45:48.420Z,45.33
2019-01-15T21:48:32.633Z,32.50
2019-01-15T21:51:19.466Z,32.20
2019-01-15T21:54:06.444Z,36.80
2019-01-15T21:56:49.335Z,50.77
2019-01-15T21:59:37.718Z,35.57
2019-01-15T22:02:34.632Z,32.57
2019-01-15T22:05:17.900Z,33.03
2019-01-15T22:08:09.007Z,39.50
2019-01-15T22:10:56.956Z,33.53
2019-01-15T22:13:51.083Z,32.53
2019-01-15T22:16:32.302Z,37.30
2019-01-15T22:19:32.468Z,49.47
2019-01-15T22:22:19.327Z,42.57
2019-01-15T22:25:06.143Z,30.50
2019-01-15T22:28:06.460Z,32.73
2019-01-15T22:31:00.458Z,41.20
2019-01-15T22:33:40.814Z,29.53
2019-01-15T22:36:29.679Z,37.57
2019-01-15T22:39:17.727Z,44.97
2019-01-15T22:42:23.995Z,38.50
2019-01-15T22:45:30.223Z,32.27
2019-01-15T22:48:12.830Z,36.27
2019-01-15T22:51:15.907Z,30.37
2019-01-15T22:54:00.645Z,38.57
2019-01-15T22:56:37.912Z,33.37
2019-01-15T22:59:38.262Z,31.13
2019-01-15T23:02:17.473Z,29.67
2019-01-15T23:05:05.468Z,34.23
2019-01-15T23:07:52.271Z,29.93
2019-01-15T23:10:46.437Z,42.17
2019-01-15T23:13:22.109Z,38.97
2019-01-15T23:16:02.824Z,29.97
2019-01-15T23:18:42.114Z,34.37
2019-01-15T23:21:42.041Z,38.80
2019-01-15T23:24:28.710Z,43.53
2019-01-15T23:27:07.411Z,52.00
2019-01-15T23:29:54.307Z,45.47
2019-01-15T23:32:37.558Z,38.47
2019-01-15T23:35:29.004Z,41.77
2019-01-15T23:38:29.220Z,41.43
2019-01-15T23:41:11.385Z,32.60
2019-01-15T23:43:51.502Z,36.53
2019-01-15T23:46:42.154Z,51.87
2019-01-15T23:49:23.124Z,55.97
2019-01-15T23:52:10.237Z,34.70
2019-01-15T23:55:03.663Z,35.57
2019-01-15T23:57:51.034Z,47.60
